createdAt,value
2022-08-21T00:02:15.711Z,39.30
2022-08-21T00:05:06.703Z,37.13
2022-08-21T00:07:56.619Z,42.10
2022-08-21T00:10:46.987Z,40.03
2022-08-21T00:13:37.141Z,44.47
2022-08-21T00:16:26.936Z,36.42
2022-08-21T00:19:16.885Z,38.40
2022-08-21T00:22:07.036Z,34.45
2022-08-21T00:24:56.915Z,36.97
2022-08-21T00:27:46.579Z,33.78
2022-08-21T00:30:37.261Z,33.22
2022-08-21T00:33:27.728Z,32.08
2022-08-21T00:36:16.919Z,33.22
2022-08-21T00:39:09.483Z,34.20
2022-08-21T00:41:58.901Z,33.90
2022-08-21T00:44:50.602Z,34.28
2022-08-21T00:47:40.639Z,35.20
2022-08-21T00:50:34.427Z,34.83
2022-08-21T00:53:25.229Z,34.80
2022-08-21T00:56:15.643Z,35.50
2022-08-21T00:59:06.795Z,36.17
2022-08-21T01:01:56.822Z,36.10
2022-08-21T01:04:46.334Z,34.97
2022-08-21T01:07:36.131Z,31.73
2022-08-21T01:10:26.395Z,34.88
2022-08-21T01:13:17.542Z,34.10
2022-08-21T01:16:11.858Z,35.40
2022-08-21T01:19:02.061Z,34.63
2022-08-21T01:21:52.317Z,34.97
2022-08-21T01:24:43.351Z,33.63
2022-08-21T01:27:33.989Z,34.85
2022-08-21T01:30:28.530Z,35.05
2022-08-21T01:33:17.948Z,35.90
2022-08-21T01:36:08.574Z,37.05
2022-08-21T01:38:59.062Z,37.70
2022-08-21T01:41:49.340Z,36.63
2022-08-21T01:44:39.779Z,36.15
2022-08-21T01:47:28.896Z,35.65
2022-08-21T01:50:20.888Z,39.65
2022-08-21T01:53:11.110Z,37.03
2022-08-21T01:56:00.911Z,38.55
2022-08-21T01:58:51.150Z,36.40
2022-08-21T02:01:43.758Z,36.88
2022-08-21T02:04:33.924Z,35.40
2022-08-21T02:07:23.698Z,33.08
2022-08-21T02:10:15.637Z,34.47
2022-08-21T02:13:08.946Z,35.25
2022-08-21T02:16:02.870Z,34.45
2022-08-21T02:18:52.982Z,35.15
2022-08-21T02:21:43.633Z,32.88
2022-08-21T02:24:33.253Z,32.47
2022-08-21T02:27:27.248Z,25.77
2022-08-21T02:30:33.742Z,24.02
2022-08-21T02:33:23.357Z,33.33
2022-08-21T02:36:13.852Z,36.67
2022-08-21T02:39:03.785Z,37.88
2022-08-21T02:41:53.462Z,31.73
2022-08-21T02:44:43.461Z,31.38
2022-08-21T02:47:33.666Z,30.50
2022-08-21T02:50:27.993Z,30.60
2022-08-21T02:53:18.814Z,28.60
2022-08-21T02:56:14.388Z,30.92
2022-08-21T02:59:04.626Z,27.75
2022-08-21T03:01:54.765Z,30.02
2022-08-21T03:04:46.679Z,29.45
2022-08-21T03:07:37.303Z,31.00
2022-08-21T03:10:27.305Z,33.53
2022-08-21T03:13:18.433Z,34.67
2022-08-21T03:16:10.032Z,36.13
2022-08-21T03:19:00.664Z,31.23
2022-08-21T03:21:50.361Z,31.55
2022-08-21T03:24:40.271Z,30.58
2022-08-21T03:27:33.990Z,30.17
2022-08-21T03:30:24.800Z,30.75
2022-08-21T03:33:15.294Z,30.75
2022-08-21T03:36:10.375Z,30.40
2022-08-21T03:39:00.167Z,31.27
2022-08-21T03:41:50.117Z,32.10
2022-08-21T03:44:41.869Z,32.20
2022-08-21T03:47:32.080Z,33.58
2022-08-21T03:50:23.253Z,32.55
2022-08-21T03:53:18.224Z,31.00
2022-08-21T03:56:08.432Z,31.73
2022-08-21T03:58:58.047Z,31.02
2022-08-21T04:02:00.038Z,31.55
2022-08-21T04:04:50.230Z,31.55
2022-08-21T04:07:40.085Z,30.42
2022-08-21T04:10:36.428Z,30.20
2022-08-21T04:13:30.424Z,43.38
2022-08-21T04:16:25.152Z,34.70
2022-08-21T04:19:18.000Z,33.92
2022-08-21T04:22:11.012Z,36.25
2022-08-21T04:25:03.812Z,35.97
2022-08-21T04:27:59.622Z,36.65
2022-08-21T04:31:03.494Z,32.15
2022-08-21T04:33:54.324Z,33.45
2022-08-21T04:36:47.191Z,35.35
2022-08-21T04:39:49.355Z,34.42
2022-08-21T04:42:51.699Z,35.38
2022-08-21T04:45:47.807Z,37.17
2022-08-21T04:48:39.481Z,37.22
2022-08-21T04:51:36.810Z,37.05
2022-08-21T04:54:26.767Z,35.95
2022-08-21T04:57:19.029Z,36.92
2022-08-21T05:00:13.661Z,37.67
2022-08-21T05:03:06.437Z,39.55
2022-08-21T05:06:03.004Z,38.17
2022-08-21T05:09:01.668Z,39.90
2022-08-21T05:11:55.355Z,37.67
2022-08-21T05:14:45.985Z,36.97
2022-08-21T05:17:36.347Z,31.85
2022-08-21T05:20:27.223Z,33.33
2022-08-21T05:23:17.753Z,33.63
2022-08-21T05:26:08.822Z,32.08
2022-08-21T05:29:12.891Z,35.20
2022-08-21T05:32:02.593Z,33.35
2022-08-21T05:34:52.310Z,31.92
2022-08-21T05:37:42.369Z,31.15
2022-08-21T05:40:32.683Z,32.40
2022-08-21T05:43:22.357Z,34.47
2022-08-21T05:46:11.977Z,36.83
2022-08-21T05:49:02.470Z,34.33
2022-08-21T05:51:52.983Z,36.53
2022-08-21T05:54:42.688Z,35.20
2022-08-21T05:57:32.773Z,35.88
2022-08-21T06:00:22.491Z,35.55
2022-08-21T06:03:22.384Z,35.35
2022-08-21T06:06:13.072Z,37.55
2022-08-21T06:09:03.020Z,38.30
2022-08-21T06:11:52.679Z,38.45
2022-08-21T06:14:43.824Z,35.58
2022-08-21T06:17:33.421Z,39.53
2022-08-21T06:20:23.879Z,39.40
2022-08-21T06:23:14.013Z,34.70
2022-08-21T06:26:07.742Z,37.25
2022-08-21T06:28:57.487Z,35.90
2022-08-21T06:31:47.561Z,38.25
2022-08-21T06:34:42.203Z,38.67
2022-08-21T06:37:31.473Z,33.45
2022-08-21T06:40:21.472Z,32.92
2022-08-21T06:43:18.964Z,34.60
2022-08-21T06:46:10.010Z,32.38
2022-08-21T06:48:59.742Z,34.42
2022-08-21T06:51:49.860Z,35.20
2022-08-21T06:54:39.842Z,36.75
2022-08-21T06:57:29.899Z,32.42
2022-08-21T07:00:19.617Z,34.72
2022-08-21T07:03:09.271Z,33.70
2022-08-21T07:06:00.648Z,32.63
2022-08-21T07:08:50.616Z,32.58
2022-08-21T07:11:44.197Z,31.83
2022-08-21T07:14:37.557Z,31.08
2022-08-21T07:17:27.537Z,32.60
2022-08-21T07:20:17.930Z,30.63
2022-08-21T07:23:11.738Z,36.80
2022-08-21T07:26:03.860Z,35.38
2022-08-21T07:28:54.620Z,30.92
2022-08-21T07:31:44.766Z,29.25
2022-08-21T07:34:34.960Z,29.85
2022-08-21T07:37:24.691Z,32.30
2022-08-21T07:40:17.775Z,32.35
2022-08-21T07:43:09.016Z,31.08
2022-08-21T07:45:59.735Z,30.40
2022-08-21T07:48:49.503Z,31.70
2022-08-21T07:51:39.739Z,30.65
2022-08-21T07:54:33.927Z,32.85
2022-08-21T07:57:24.268Z,36.60
2022-08-21T08:00:22.304Z,44.35
2022-08-21T08:03:12.807Z,42.40
2022-08-21T08:06:02.849Z,51.45
2022-08-21T08:08:52.413Z,50.72
2022-08-21T08:11:45.988Z,51.30
2022-08-21T08:14:36.398Z,56.13
2022-08-21T08:17:27.363Z,48.28
2022-08-21T08:20:20.525Z,44.35
2022-08-21T08:23:15.991Z,44.60
2022-08-21T08:26:05.821Z,45.35
2022-08-21T08:28:55.501Z,48.70
2022-08-21T08:31:47.570Z,42.67
2022-08-21T08:34:38.434Z,36.28
2022-08-21T08:37:31.474Z,39.28
2022-08-21T08:40:49.123Z,35.85
2022-08-21T08:43:38.491Z,35.30
2022-08-21T08:46:39.903Z,32.80
2022-08-21T08:49:32.512Z,32.85
2022-08-21T08:52:26.644Z,30.08
2022-08-21T08:55:27.133Z,29.08
2022-08-21T08:58:27.233Z,42.75
2022-08-21T09:01:22.624Z,29.83
2022-08-21T09:04:17.074Z,28.55
2022-08-21T09:07:34.125Z,28.73
2022-08-21T09:10:33.619Z,29.02
2022-08-21T09:13:59.635Z,29.63
2022-08-21T09:17:00.168Z,32.42
2022-08-21T09:20:12.417Z,34.78
2022-08-21T09:23:08.413Z,35.78
2022-08-21T09:26:16.364Z,36.58
2022-08-21T09:29:06.432Z,39.90
2022-08-21T09:31:56.421Z,38.78
2022-08-21T09:35:06.724Z,42.28
2022-08-21T09:37:59.239Z,40.42
2022-08-21T09:40:50.204Z,35.70
2022-08-21T09:43:41.398Z,36.53
2022-08-21T09:46:32.415Z,42.38
2022-08-21T09:49:34.940Z,40.95
2022-08-21T09:52:25.681Z,45.95
2022-08-21T09:56:00.040Z,48.40
2022-08-21T09:58:52.521Z,48.03
2022-08-21T10:01:53.690Z,38.03
2022-08-21T10:04:48.197Z,38.25
2022-08-21T10:07:42.913Z,42.47
2022-08-21T10:10:34.289Z,42.53
2022-08-21T10:13:47.563Z,40.95
2022-08-21T10:16:55.675Z,42.58
2022-08-21T10:20:01.945Z,44.42
2022-08-21T10:23:19.659Z,48.58
2022-08-21T10:26:28.000Z,45.22
2022-08-21T10:29:43.191Z,47.25
2022-08-21T10:32:53.282Z,51.25
2022-08-21T10:36:10.635Z,58.75
2022-08-21T10:39:33.606Z,58.85
2022-08-21T10:42:31.384Z,43.55
2022-08-21T10:45:33.901Z,42.10
2022-08-21T10:48:32.516Z,43.47
2022-08-21T10:51:45.915Z,46.83
2022-08-21T10:54:55.109Z,47.60
2022-08-21T10:57:51.468Z,43.00
2022-08-21T11:00:55.765Z,44.15
2022-08-21T11:03:49.504Z,41.92
2022-08-21T11:06:47.836Z,40.97
2022-08-21T11:09:40.700Z,39.30
2022-08-21T11:12:43.914Z,35.88
2022-08-21T11:15:48.489Z,39.67
2022-08-21T11:18:44.449Z,45.05
2022-08-21T11:21:33.840Z,41.30
2022-08-21T11:24:32.600Z,43.88
2022-08-21T11:27:30.385Z,38.97
2022-08-21T11:30:21.480Z,36.03
2022-08-21T11:33:34.207Z,38.50
2022-08-21T11:36:48.752Z,35.53
2022-08-21T11:39:56.883Z,34.55
2022-08-21T11:42:52.702Z,37.88
2022-08-21T11:46:17.069Z,42.90
2022-08-21T11:49:20.708Z,40.60
2022-08-21T11:52:16.498Z,36.67
2022-08-21T11:55:26.559Z,45.35
2022-08-21T11:58:40.638Z,60.28
2022-08-21T12:01:44.362Z,60.28
2022-08-21T12:04:37.944Z,56.35
2022-08-21T12:07:45.854Z,48.50
2022-08-21T12:11:04.406Z,58.97
2022-08-21T12:14:13.702Z,70.22
2022-08-21T12:17:12.160Z,56.90
2022-08-21T12:20:07.064Z,49.67
2022-08-21T12:23:18.776Z,49.88
2022-08-21T12:26:28.097Z,55.22
2022-08-21T12:29:33.939Z,47.22
2022-08-21T12:32:47.879Z,43.67
2022-08-21T12:35:45.838Z,42.50
2022-08-21T12:38:49.735Z,42.65
2022-08-21T12:42:21.935Z,42.83
2022-08-21T12:45:29.390Z,43.05
2022-08-21T12:48:25.123Z,42.33
2022-08-21T12:51:18.534Z,47.10
2022-08-21T12:54:07.780Z,43.78
2022-08-21T12:57:06.474Z,46.17
2022-08-21T13:00:06.699Z,45.95
2022-08-21T13:02:57.850Z,42.45
2022-08-21T13:05:47.897Z,46.78
2022-08-21T13:08:46.721Z,46.20
2022-08-21T13:11:37.506Z,46.75
2022-08-21T13:14:46.003Z,46.97
2022-08-21T13:17:39.792Z,43.78
2022-08-21T13:20:40.378Z,44.15
2022-08-21T13:23:33.272Z,44.08
2022-08-21T13:26:24.691Z,45.10
2022-08-21T13:29:17.572Z,41.97
2022-08-21T13:32:23.445Z,45.05
2022-08-21T13:35:24.639Z,44.47
2022-08-21T13:38:14.716Z,43.10
2022-08-21T13:41:19.107Z,43.72
2022-08-21T13:44:20.426Z,46.35
2022-08-21T13:47:13.744Z,43.70
2022-08-21T13:50:03.487Z,46.83
2022-08-21T13:53:05.784Z,46.97
2022-08-21T13:56:00.359Z,46.33
2022-08-21T13:58:50.699Z,44.08
2022-08-21T14:02:17.727Z,44.45
2022-08-21T14:05:11.200Z,42.70
2022-08-21T14:08:11.329Z,42.55
2022-08-21T14:11:02.051Z,41.97
2022-08-21T14:13:54.495Z,43.00
2022-08-21T14:16:48.579Z,43.70
2022-08-21T14:19:46.502Z,42.28
2022-08-21T14:22:51.977Z,44.58
2022-08-21T14:25:46.588Z,47.15
2022-08-21T14:28:40.817Z,45.67
2022-08-21T14:31:36.655Z,46.60
2022-08-21T14:34:35.920Z,46.55
2022-08-21T14:37:26.917Z,43.40
2022-08-21T14:40:17.116Z,44.72
2022-08-21T14:43:07.440Z,41.40
2022-08-21T14:45:57.541Z,41.20
2022-08-21T14:48:49.097Z,41.97
2022-08-21T14:51:39.082Z,39.60
2022-08-21T14:54:43.942Z,39.03
2022-08-21T14:57:34.655Z,38.67
2022-08-21T15:00:27.139Z,38.65
2022-08-21T15:03:27.398Z,38.67
2022-08-21T15:06:19.837Z,37.90
2022-08-21T15:09:09.894Z,39.80
2022-08-21T15:12:02.137Z,38.78
2022-08-21T15:14:52.072Z,39.30
2022-08-21T15:17:44.979Z,39.65
2022-08-21T15:20:38.466Z,38.92
2022-08-21T15:23:28.039Z,39.58
2022-08-21T15:26:18.123Z,41.00
2022-08-21T15:29:09.779Z,40.10
2022-08-21T15:32:17.993Z,39.13
2022-08-21T15:35:07.830Z,39.95
2022-08-21T15:37:57.613Z,41.80
2022-08-21T15:40:52.230Z,41.58
2022-08-21T15:43:51.740Z,43.35
2022-08-21T15:46:42.409Z,41.28
2022-08-21T15:49:31.835Z,43.45
2022-08-21T15:52:24.073Z,45.25
2022-08-21T15:55:14.276Z,45.08
2022-08-21T15:58:05.855Z,43.83
2022-08-21T16:00:56.036Z,43.83
2022-08-21T16:03:50.537Z,45.03
2022-08-21T16:06:53.458Z,44.58
2022-08-21T16:09:44.119Z,47.83
2022-08-21T16:12:36.781Z,45.40
2022-08-21T16:15:26.522Z,45.42
2022-08-21T16:18:16.227Z,44.28
2022-08-21T16:21:06.055Z,42.88
2022-08-21T16:23:55.483Z,42.60
2022-08-21T16:26:46.046Z,44.25
2022-08-21T16:29:48.304Z,44.20
2022-08-21T16:32:38.109Z,42.33
2022-08-21T16:35:28.496Z,43.40
2022-08-21T16:38:17.769Z,43.33
2022-08-21T16:41:11.061Z,43.90
2022-08-21T16:44:02.368Z,43.33
2022-08-21T16:46:51.844Z,43.90
2022-08-21T16:49:41.341Z,44.67
2022-08-21T16:52:30.580Z,44.30
2022-08-21T16:55:20.417Z,46.83
2022-08-21T16:58:35.316Z,47.72
2022-08-21T17:01:28.184Z,47.03
2022-08-21T17:04:17.972Z,48.38
2022-08-21T17:07:07.722Z,48.30
2022-08-21T17:09:57.843Z,48.20
2022-08-21T17:12:57.201Z,48.05
2022-08-21T17:15:50.513Z,48.35
2022-08-21T17:18:39.766Z,48.92
2022-08-21T17:21:29.485Z,47.25
2022-08-21T17:24:19.161Z,46.85
2022-08-21T17:27:09.764Z,46.83
2022-08-21T17:29:59.354Z,49.47
2022-08-21T17:32:50.861Z,47.92
2022-08-21T17:35:40.790Z,49.33
2022-08-21T17:38:31.645Z,49.85
2022-08-21T17:41:24.704Z,51.05
2022-08-21T17:44:22.016Z,51.97
2022-08-21T17:47:12.235Z,50.80
2022-08-21T17:50:01.841Z,51.22
2022-08-21T17:52:51.048Z,51.55
2022-08-21T17:55:42.914Z,53.17
2022-08-21T17:58:32.943Z,52.47
2022-08-21T18:01:24.662Z,53.85
2022-08-21T18:04:14.174Z,51.50
2022-08-21T18:07:03.545Z,53.10
2022-08-21T18:09:52.921Z,53.03
2022-08-21T18:12:47.992Z,52.45
2022-08-21T18:15:38.526Z,52.38
2022-08-21T18:18:29.881Z,53.00
2022-08-21T18:21:20.483Z,52.47
2022-08-21T18:24:13.065Z,54.90
2022-08-21T18:27:04.569Z,52.45
2022-08-21T18:29:57.136Z,54.40
2022-08-21T18:32:47.981Z,50.30
2022-08-21T18:35:38.153Z,53.47
2022-08-21T18:38:29.118Z,51.80
2022-08-21T18:41:18.876Z,52.40
2022-08-21T18:44:08.520Z,50.88
2022-08-21T18:47:06.581Z,49.72
2022-08-21T18:49:56.663Z,52.15
2022-08-21T18:52:53.541Z,51.50
2022-08-21T18:55:46.703Z,50.60
2022-08-21T18:58:39.110Z,52.47
2022-08-21T19:01:28.891Z,52.15
2022-08-21T19:04:42.874Z,54.17
2022-08-21T19:07:28.261Z,52.35
2022-08-21T19:10:27.876Z,51.58
2022-08-21T19:13:21.755Z,52.40
2022-08-21T19:16:13.948Z,51.17
2022-08-21T19:19:04.114Z,49.80
2022-08-21T19:21:54.682Z,54.08
2022-08-21T19:27:56.055Z,55.22
2022-08-21T19:30:53.288Z,54.78
2022-08-21T19:33:46.062Z,53.30
2022-08-21T19:36:40.362Z,54.33
2022-08-21T19:39:33.493Z,54.38
2022-08-21T19:42:28.881Z,53.78
2022-08-21T19:48:34.224Z,55.10
2022-08-21T19:51:24.607Z,54.22
2022-08-21T19:54:18.839Z,55.45
2022-08-21T19:57:10.471Z,54.33
2022-08-21T19:59:59.848Z,54.67
2022-08-21T20:02:49.440Z,56.20
2022-08-21T20:08:49.558Z,56.08
2022-08-21T20:11:47.739Z,55.03
2022-08-21T20:14:40.942Z,53.90
2022-08-21T20:17:30.905Z,56.55
2022-08-21T20:20:21.179Z,54.97
2022-08-21T20:23:11.137Z,55.72
2022-08-21T20:26:01.250Z,58.33
2022-08-21T20:28:51.657Z,56.63
2022-08-21T20:31:41.040Z,55.45
2022-08-21T20:34:30.542Z,55.47
2022-08-21T20:40:32.965Z,57.63
2022-08-21T20:43:23.253Z,55.55
2022-08-21T20:46:12.992Z,54.67
2022-08-21T20:49:03.526Z,53.67
2022-08-21T20:51:54.999Z,55.95
2022-08-21T20:54:51.355Z,55.08
2022-08-21T20:57:57.875Z,55.20
2022-08-21T21:00:50.226Z,60.03
2022-08-21T21:03:57.536Z,57.70
2022-08-21T21:09:57.924Z,58.95
2022-08-21T21:12:53.315Z,60.80
2022-08-21T21:15:44.784Z,60.65
2022-08-21T21:18:40.738Z,61.33
2022-08-21T21:21:36.714Z,60.20
2022-08-21T21:24:39.308Z,61.40
2022-08-21T21:27:39.697Z,62.80
2022-08-21T21:30:37.372Z,66.03
2022-08-21T21:33:28.596Z,64.30
2022-08-21T21:36:31.286Z,66.38
2022-08-21T21:39:36.182Z,65.65
2022-08-21T21:42:44.323Z,65.55
2022-08-21T21:45:45.200Z,63.05
2022-08-21T21:48:56.476Z,65.55
2022-08-21T21:52:04.082Z,64.82
2022-08-21T21:54:54.168Z,65.03
2022-08-21T21:58:00.845Z,64.85
2022-08-21T22:01:23.940Z,64.20
2022-08-21T22:04:50.937Z,68.78
2022-08-21T22:07:52.197Z,66.75
2022-08-21T22:10:54.023Z,68.97
2022-08-21T22:14:05.516Z,64.28
2022-08-21T22:17:00.758Z,63.75
2022-08-21T22:19:50.114Z,58.35
2022-08-21T22:22:40.652Z,57.55
2022-08-21T22:25:35.428Z,52.58
2022-08-21T22:28:27.896Z,49.75
2022-08-21T22:31:21.335Z,48.45
2022-08-21T22:34:22.882Z,42.60
2022-08-21T22:37:14.236Z,42.10
2022-08-21T22:40:11.082Z,42.17
2022-08-21T22:43:07.173Z,40.95
2022-08-21T22:46:01.914Z,43.22
2022-08-21T22:48:59.796Z,43.20
2022-08-21T22:51:52.371Z,44.10
2022-08-21T22:54:45.296Z,44.97
2022-08-21T22:57:37.157Z,43.92
2022-08-21T23:00:55.295Z,46.17
2022-08-21T23:03:46.939Z,48.38
2022-08-21T23:06:44.826Z,49.25
2022-08-21T23:09:40.419Z,46.83
2022-08-21T23:12:34.214Z,49.10
2022-08-21T23:15:24.103Z,48.00
2022-08-21T23:18:45.465Z,46.13
2022-08-21T23:21:53.221Z,46.28
2022-08-21T23:25:18.825Z,45.60
2022-08-21T23:28:12.958Z,46.30
2022-08-21T23:31:41.016Z,44.90
2022-08-21T23:34:52.415Z,44.42
2022-08-21T23:38:09.308Z,42.55
2022-08-21T23:41:10.957Z,41.92
2022-08-21T23:44:28.411Z,44.83
2022-08-21T23:47:33.771Z,42.58
2022-08-21T23:50:32.150Z,35.33
2022-08-21T23:53:33.916Z,34.95
2022-08-21T23:56:43.383Z,35.78
2022-08-21T23:59:49.285Z,35.95
